sensor_id;sensor_type;location;lat;lon;timestamp;P1;durP1;ratioP1;P2;durP2;ratioP2
19173;SDS011;9719;49.322;8.536;2023-04-25T00:00:56;1.27;;;1.17;;
19173;SDS011;9719;49.322;8.536;2023-04-25T00:05:59;1.35;;;1.25;;
19173;SDS011;9719;49.322;8.536;2023-04-25T00:11:02;1.45;;;1.35;;
19173;SDS011;9719;49.322;8.536;2023-04-25T00:16:04;1.75;;;1.65;;
19173;SDS011;9719;49.322;8.536;2023-04-25T00:21:07;1.30;;;1.20;;
19173;SDS011;9719;49.322;8.536;2023-04-25T00:26:09;1.23;;;1.13;;
19173;SDS011;9719;49.322;8.536;2023-04-25T00:31:11;1.30;;;1.30;;
19173;SDS011;9719;49.322;8.536;2023-04-25T00:36:14;1.70;;;1.60;;
19173;SDS011;9719;49.322;8.536;2023-04-25T00:41:17;1.38;;;1.27;;
19173;SDS011;9719;49.322;8.536;2023-04-25T00:46:19;1.33;;;1.33;;
19173;SDS011;9719;49.322;8.536;2023-04-25T00:51:22;1.90;;;1.48;;
19173;SDS011;9719;49.322;8.536;2023-04-25T00:56:25;1.40;;;1.20;;
19173;SDS011;9719;49.322;8.536;2023-04-25T01:01:27;1.10;;;0.98;;
19173;SDS011;9719;49.322;8.536;2023-04-25T01:06:30;2.03;;;1.92;;
19173;SDS011;9719;49.322;8.536;2023-04-25T01:11:33;2.25;;;1.60;;
19173;SDS011;9719;49.322;8.536;2023-04-25T01:16:34;2.05;;;1.88;;
19173;SDS011;9719;49.322;8.536;2023-04-25T01:21:38;2.10;;;1.63;;
19173;SDS011;9719;49.322;8.536;2023-04-25T01:26:40;2.67;;;1.85;;
19173;SDS011;9719;49.322;8.536;2023-04-25T01:31:44;2.38;;;2.20;;
19173;SDS011;9719;49.322;8.536;2023-04-25T01:36:47;3.08;;;2.78;;
19173;SDS011;9719;49.322;8.536;2023-04-25T01:41:50;1.70;;;1.60;;
19173;SDS011;9719;49.322;8.536;2023-04-25T01:46:52;2.08;;;1.88;;
19173;SDS011;9719;49.322;8.536;2023-04-25T01:51:56;2.10;;;1.95;;
19173;SDS011;9719;49.322;8.536;2023-04-25T01:56:57;1.73;;;1.40;;
19173;SDS011;9719;49.322;8.536;2023-04-25T02:01:59;1.85;;;1.75;;
19173;SDS011;9719;49.322;8.536;2023-04-25T02:07:05;1.75;;;1.60;;
19173;SDS011;9719;49.322;8.536;2023-04-25T02:12:07;2.88;;;1.83;;
19173;SDS011;9719;49.322;8.536;2023-04-25T02:17:09;1.67;;;1.58;;
19173;SDS011;9719;49.322;8.536;2023-04-25T02:22:13;1.65;;;1.55;;
19173;SDS011;9719;49.322;8.536;2023-04-25T02:27:15;1.70;;;1.60;;
19173;SDS011;9719;49.322;8.536;2023-04-25T02:32:17;1.77;;;1.67;;
19173;SDS011;9719;49.322;8.536;2023-04-25T02:37:20;1.67;;;1.52;;
19173;SDS011;9719;49.322;8.536;2023-04-25T02:42:21;1.27;;;1.25;;
19173;SDS011;9719;49.322;8.536;2023-04-25T02:47:23;2.00;;;1.83;;
19173;SDS011;9719;49.322;8.536;2023-04-25T02:52:26;2.35;;;1.98;;
19173;SDS011;9719;49.322;8.536;2023-04-25T02:57:28;2.22;;;2.03;;
19173;SDS011;9719;49.322;8.536;2023-04-25T03:02:29;1.92;;;1.80;;
19173;SDS011;9719;49.322;8.536;2023-04-25T03:07:32;1.75;;;1.65;;
19173;SDS011;9719;49.322;8.536;2023-04-25T03:12:34;1.35;;;1.35;;
19173;SDS011;9719;49.322;8.536;2023-04-25T03:17:36;1.67;;;1.58;;
19173;SDS011;9719;49.322;8.536;2023-04-25T03:22:39;1.45;;;1.38;;
19173;SDS011;9719;49.322;8.536;2023-04-25T03:27:41;1.95;;;1.23;;
19173;SDS011;9719;49.322;8.536;2023-04-25T03:32:42;1.70;;;1.60;;
19173;SDS011;9719;49.322;8.536;2023-04-25T03:37:45;1.67;;;1.58;;
19173;SDS011;9719;49.322;8.536;2023-04-25T03:42:47;2.97;;;2.03;;
19173;SDS011;9719;49.322;8.536;2023-04-25T03:47:49;1.50;;;1.40;;
19173;SDS011;9719;49.322;8.536;2023-04-25T03:52:52;2.92;;;1.85;;
19173;SDS011;9719;49.322;8.536;2023-04-25T03:57:53;1.88;;;1.73;;
19173;SDS011;9719;49.322;8.536;2023-04-25T04:02:55;1.98;;;1.77;;
19173;SDS011;9719;49.322;8.536;2023-04-25T04:07:58;1.70;;;1.60;;
19173;SDS011;9719;49.322;8.536;2023-04-25T04:12:59;2.28;;;2.08;;
19173;SDS011;9719;49.322;8.536;2023-04-25T04:18:01;1.40;;;1.30;;
19173;SDS011;9719;49.322;8.536;2023-04-25T04:23:04;1.80;;;1.70;;
19173;SDS011;9719;49.322;8.536;2023-04-25T04:28:06;2.22;;;1.80;;
19173;SDS011;9719;49.322;8.536;2023-04-25T04:33:07;2.33;;;2.13;;
19173;SDS011;9719;49.322;8.536;2023-04-25T04:38:10;1.80;;;1.70;;
19173;SDS011;9719;49.322;8.536;2023-04-25T04:43:13;1.88;;;1.77;;
19173;SDS011;9719;49.322;8.536;2023-04-25T04:48:17;2.13;;;1.92;;
19173;SDS011;9719;49.322;8.536;2023-04-25T04:53:20;2.05;;;1.85;;
19173;SDS011;9719;49.322;8.536;2023-04-25T04:58:21;1.70;;;1.60;;
19173;SDS011;9719;49.322;8.536;2023-04-25T05:03:23;2.20;;;2.00;;
19173;SDS011;9719;49.322;8.536;2023-04-25T05:08:26;2.03;;;1.92;;
19173;SDS011;9719;49.322;8.536;2023-04-25T05:13:28;2.55;;;2.03;;
19173;SDS011;9719;49.322;8.536;2023-04-25T05:18:31;2.22;;;1.77;;
19173;SDS011;9719;49.322;8.536;2023-04-25T05:23:34;1.90;;;1.80;;
19173;SDS011;9719;49.322;8.536;2023-04-25T05:28:36;2.10;;;1.67;;
19173;SDS011;9719;49.322;8.536;2023-04-25T05:33:37;2.15;;;1.80;;
19173;SDS011;9719;49.322;8.536;2023-04-25T05:38:40;3.67;;;2.20;;
19173;SDS011;9719;49.322;8.536;2023-04-25T05:43:43;3.20;;;1.75;;
19173;SDS011;9719;49.322;8.536;2023-04-25T05:48:46;2.45;;;2.28;;
19173;SDS011;9719;49.322;8.536;2023-04-25T05:53:49;2.50;;;2.30;;
19173;SDS011;9719;49.322;8.536;2023-04-25T05:58:51;1.70;;;1.60;;
19173;SDS011;9719;49.322;8.536;2023-04-25T06:03:53;1.98;;;1.50;;
19173;SDS011;9719;49.322;8.536;2023-04-25T06:08:56;2.15;;;1.95;;
19173;SDS011;9719;49.322;8.536;2023-04-25T06:13:57;2.30;;;2.10;;
19173;SDS011;9719;49.322;8.536;2023-04-25T06:18:59;1.63;;;1.50;;
19173;SDS011;9719;49.322;8.536;2023-04-25T06:24:02;1.90;;;1.80;;
19173;SDS011;9719;49.322;8.536;2023-04-25T06:29:04;2.78;;;1.65;;
19173;SDS011;9719;49.322;8.536;2023-04-25T06:34:06;2.97;;;2.05;;
19173;SDS011;9719;49.322;8.536;2023-04-25T06:39:09;2.03;;;1.92;;
19173;SDS011;9719;49.322;8.536;2023-04-25T06:44:11;1.92;;;1.73;;
19173;SDS011;9719;49.322;8.536;2023-04-25T06:49:12;2.95;;;2.22;;
19173;SDS011;9719;49.322;8.536;2023-04-25T06:54:15;2.60;;;2.45;;
19173;SDS011;9719;49.322;8.536;2023-04-25T06:59:17;3.53;;;2.58;;
19173;SDS011;9719;49.322;8.536;2023-04-25T07:04:19;2.60;;;2.40;;
19173;SDS011;9719;49.322;8.536;2023-04-25T07:09:22;3.20;;;2.63;;
19173;SDS011;9719;49.322;8.536;2023-04-25T07:14:23;2.83;;;2.60;;
19173;SDS011;9719;49.322;8.536;2023-04-25T07:19:25;1.90;;;1.80;;
19173;SDS011;9719;49.322;8.536;2023-04-25T07:24:31;2.53;;;2.33;;
19173;SDS011;9719;49.322;8.536;2023-04-25T07:29:32;3.53;;;3.22;;
19173;SDS011;9719;49.322;8.536;2023-04-25T07:34:37;5.13;;;2.05;;
19173;SDS011;9719;49.322;8.536;2023-04-25T07:39:40;3.70;;;2.58;;
19173;SDS011;9719;49.322;8.536;2023-04-25T07:44:41;3.22;;;3.03;;
19173;SDS011;9719;49.322;8.536;2023-04-25T07:49:43;3.60;;;3.15;;
19173;SDS011;9719;49.322;8.536;2023-04-25T07:54:46;3.10;;;2.85;;
19173;SDS011;9719;49.322;8.536;2023-04-25T07:59:48;3.20;;;2.90;;
19173;SDS011;9719;49.322;8.536;2023-04-25T08:04:50;2.33;;;2.13;;
19173;SDS011;9719;49.322;8.536;2023-04-25T08:09:53;2.83;;;2.20;;
19173;SDS011;9719;49.322;8.536;2023-04-25T08:14:55;2.53;;;2.33;;
19173;SDS011;9719;49.322;8.536;2023-04-25T08:19:57;2.33;;;2.13;;
19173;SDS011;9719;49.322;8.536;2023-04-25T08:25:00;3.17;;;2.08;;
19173;SDS011;9719;49.322;8.536;2023-04-25T08:30:01;2.22;;;1.80;;
19173;SDS011;9719;49.322;8.536;2023-04-25T08:35:03;2.90;;;2.60;;
19173;SDS011;9719;49.322;8.536;2023-04-25T08:40:08;3.20;;;2.25;;
19173;SDS011;9719;49.322;8.536;2023-04-25T08:45:13;3.65;;;2.13;;
19173;SDS011;9719;49.322;8.536;2023-04-25T08:50:14;2.72;;;1.90;;
19173;SDS011;9719;49.322;8.536;2023-04-25T08:55:19;3.22;;;2.63;;
19173;SDS011;9719;49.322;8.536;2023-04-25T09:00:22;2.63;;;2.17;;
19173;SDS011;9719;49.322;8.536;2023-04-25T09:05:24;4.25;;;2.95;;
19173;SDS011;9719;49.322;8.536;2023-04-25T09:10:27;3.80;;;2.92;;
19173;SDS011;9719;49.322;8.536;2023-04-25T09:15:29;5.72;;;3.33;;
19173;SDS011;9719;49.322;8.536;2023-04-25T09:20:32;5.07;;;3.03;;
19173;SDS011;9719;49.322;8.536;2023-04-25T09:25:44;2.92;;;2.65;;
19173;SDS011;9719;49.322;8.536;2023-04-25T09:30:47;3.40;;;3.10;;
19173;SDS011;9719;49.322;8.536;2023-04-25T09:35:49;2.65;;;2.45;;
19173;SDS011;9719;49.322;8.536;2023-04-25T09:40:56;7.22;;;3.22;;
19173;SDS011;9719;49.322;8.536;2023-04-25T09:45:58;3.50;;;3.20;;
19173;SDS011;9719;49.322;8.536;2023-04-25T09:51:04;2.33;;;2.15;;
19173;SDS011;9719;49.322;8.536;2023-04-25T09:56:09;2.25;;;2.05;;
19173;SDS011;9719;49.322;8.536;2023-04-25T10:01:12;3.45;;;3.05;;
19173;SDS011;9719;49.322;8.536;2023-04-25T10:06:14;3.05;;;2.65;;
19173;SDS011;9719;49.322;8.536;2023-04-25T10:11:21;5.13;;;3.33;;
19173;SDS011;9719;49.322;8.536;2023-04-25T10:16:25;4.03;;;3.70;;
19173;SDS011;9719;49.322;8.536;2023-04-25T10:21:28;3.80;;;2.78;;
19173;SDS011;9719;49.322;8.536;2023-04-25T10:26:36;5.18;;;3.22;;
19173;SDS011;9719;49.322;8.536;2023-04-25T10:31:44;2.00;;;1.90;;
19173;SDS011;9719;49.322;8.536;2023-04-25T10:36:49;2.67;;;2.47;;
19173;SDS011;9719;49.322;8.536;2023-04-25T10:41:55;6.15;;;2.22;;
19173;SDS011;9719;49.322;8.536;2023-04-25T10:46:58;4.88;;;2.33;;
19173;SDS011;9719;49.322;8.536;2023-04-25T10:52:10;5.40;;;2.58;;
19173;SDS011;9719;49.322;8.536;2023-04-25T10:57:36;4.13;;;2.55;;
19173;SDS011;9719;49.322;8.536;2023-04-25T11:02:41;4.13;;;2.53;;
19173;SDS011;9719;49.322;8.536;2023-04-25T11:07:50;2.70;;;2.50;;
19173;SDS011;9719;49.322;8.536;2023-04-25T11:12:55;2.72;;;2.53;;
19173;SDS011;9719;49.322;8.536;2023-04-25T11:17:57;4.90;;;2.30;;
19173;SDS011;9719;49.322;8.536;2023-04-25T11:22:59;2.30;;;2.10;;
19173;SDS011;9719;49.322;8.536;2023-04-25T11:28:02;4.00;;;2.75;;
19173;SDS011;9719;49.322;8.536;2023-04-25T11:33:05;2.50;;;2.03;;
19173;SDS011;9719;49.322;8.536;2023-04-25T11:38:07;1.98;;;1.83;;
19173;SDS011;9719;49.322;8.536;2023-04-25T11:43:10;2.47;;;2.22;;
19173;SDS011;9719;49.322;8.536;2023-04-25T11:48:11;2.45;;;1.90;;
19173;SDS011;9719;49.322;8.536;2023-04-25T11:53:13;1.70;;;1.60;;
19173;SDS011;9719;49.322;8.536;2023-04-25T11:58:16;1.45;;;1.40;;
19173;SDS011;9719;49.322;8.536;2023-04-25T12:03:19;1.95;;;1.85;;
19173;SDS011;9719;49.322;8.536;2023-04-25T12:08:23;1.67;;;1.52;;
19173;SDS011;9719;49.322;8.536;2023-04-25T12:13:27;1.73;;;1.63;;
19173;SDS011;9719;49.322;8.536;2023-04-25T12:18:28;1.85;;;1.73;;
19173;SDS011;9719;49.322;8.536;2023-04-25T12:23:30;4.50;;;1.63;;
19173;SDS011;9719;49.322;8.536;2023-04-25T12:28:33;2.60;;;2.33;;
19173;SDS011;9719;49.322;8.536;2023-04-25T12:33:35;2.95;;;1.83;;
19173;SDS011;9719;49.322;8.536;2023-04-25T12:38:38;2.20;;;2.00;;
19173;SDS011;9719;49.322;8.536;2023-04-25T12:43:42;2.35;;;2.15;;
19173;SDS011;9719;49.322;8.536;2023-04-25T12:48:43;1.70;;;1.60;;
19173;SDS011;9719;49.322;8.536;2023-04-25T12:53:45;1.80;;;1.70;;
19173;SDS011;9719;49.322;8.536;2023-04-25T12:58:48;2.63;;;1.30;;
19173;SDS011;9719;49.322;8.536;2023-04-25T13:03:49;4.35;;;1.92;;
19173;SDS011;9719;49.322;8.536;2023-04-25T13:08:51;2.67;;;1.40;;
19173;SDS011;9719;49.322;8.536;2023-04-25T13:13:55;13.27;;;2.65;;
19173;SDS011;9719;49.322;8.536;2023-04-25T13:18:57;2.88;;;1.52;;
19173;SDS011;9719;49.322;8.536;2023-04-25T13:23:59;3.78;;;1.88;;
19173;SDS011;9719;49.322;8.536;2023-04-25T13:29:02;1.58;;;1.48;;
19173;SDS011;9719;49.322;8.536;2023-04-25T13:34:04;1.10;;;1.10;;
19173;SDS011;9719;49.322;8.536;2023-04-25T13:39:05;2.83;;;1.90;;
19173;SDS011;9719;49.322;8.536;2023-04-25T13:44:08;1.60;;;1.50;;
19173;SDS011;9719;49.322;8.536;2023-04-25T13:49:10;2.42;;;1.80;;
19173;SDS011;9719;49.322;8.536;2023-04-25T13:54:12;2.85;;;2.63;;
19173;SDS011;9719;49.322;8.536;2023-04-25T13:59:15;2.05;;;1.95;;
19173;SDS011;9719;49.322;8.536;2023-04-25T14:04:17;2.25;;;2.00;;
19173;SDS011;9719;49.322;8.536;2023-04-25T14:09:18;3.20;;;2.25;;
19173;SDS011;9719;49.322;8.536;2023-04-25T14:14:26;2.33;;;1.85;;
19173;SDS011;9719;49.322;8.536;2023-04-25T14:19:28;1.90;;;1.70;;
19173;SDS011;9719;49.322;8.536;2023-04-25T14:24:30;2.40;;;2.20;;
19173;SDS011;9719;49.322;8.536;2023-04-25T14:29:33;2.33;;;2.00;;
19173;SDS011;9719;49.322;8.536;2023-04-25T14:34:34;3.42;;;2.03;;
19173;SDS011;9719;49.322;8.536;2023-04-25T14:39:36;2.70;;;1.95;;
19173;SDS011;9719;49.322;8.536;2023-04-25T14:44:39;2.47;;;2.38;;
19173;SDS011;9719;49.322;8.536;2023-04-25T14:49:41;8.48;;;1.90;;
19173;SDS011;9719;49.322;8.536;2023-04-25T14:54:43;1.65;;;1.55;;
19173;SDS011;9719;49.322;8.536;2023-04-25T14:59:46;2.00;;;1.90;;
19173;SDS011;9719;49.322;8.536;2023-04-25T15:04:47;1.90;;;1.80;;
19173;SDS011;9719;49.322;8.536;2023-04-25T15:09:49;1.63;;;1.52;;
19173;SDS011;9719;49.322;8.536;2023-04-25T15:14:54;4.40;;;2.42;;
19173;SDS011;9719;49.322;8.536;2023-04-25T15:19:56;4.40;;;2.17;;
19173;SDS011;9719;49.322;8.536;2023-04-25T15:24:57;2.30;;;2.15;;
19173;SDS011;9719;49.322;8.536;2023-04-25T15:30:00;2.03;;;1.92;;
19173;SDS011;9719;49.322;8.536;2023-04-25T15:35:03;2.65;;;2.17;;
19173;SDS011;9719;49.322;8.536;2023-04-25T15:40:06;2.17;;;1.83;;
19173;SDS011;9719;49.322;8.536;2023-04-25T15:45:11;1.75;;;1.65;;
19173;SDS011;9719;49.322;8.536;2023-04-25T15:50:14;2.45;;;2.35;;
19173;SDS011;9719;49.322;8.536;2023-04-25T15:55:16;2.20;;;2.00;;
19173;SDS011;9719;49.322;8.536;2023-04-25T16:00:21;1.60;;;1.50;;
19173;SDS011;9719;49.322;8.536;2023-04-25T16:05:23;1.75;;;1.65;;
19173;SDS011;9719;49.322;8.536;2023-04-25T16:10:24;4.35;;;1.95;;
19173;SDS011;9719;49.322;8.536;2023-04-25T16:15:28;1.98;;;1.88;;
19173;SDS011;9719;49.322;8.536;2023-04-25T16:20:31;2.45;;;2.22;;
19173;SDS011;9719;49.322;8.536;2023-04-25T16:25:33;1.95;;;1.85;;
19173;SDS011;9719;49.322;8.536;2023-04-25T16:30:36;2.20;;;2.00;;
19173;SDS011;9719;49.322;8.536;2023-04-25T16:35:38;1.98;;;1.85;;
19173;SDS011;9719;49.322;8.536;2023-04-25T16:40:39;1.88;;;1.77;;
19173;SDS011;9719;49.322;8.536;2023-04-25T16:45:42;5.47;;;1.73;;
19173;SDS011;9719;49.322;8.536;2023-04-25T16:50:44;2.90;;;2.08;;
19173;SDS011;9719;49.322;8.536;2023-04-25T16:55:46;1.60;;;1.50;;
19173;SDS011;9719;49.322;8.536;2023-04-25T17:00:49;1.63;;;1.45;;
19173;SDS011;9719;49.322;8.536;2023-04-25T17:05:52;1.30;;;1.15;;
19173;SDS011;9719;49.322;8.536;2023-04-25T17:10:55;2.30;;;1.40;;
19173;SDS011;9719;49.322;8.536;2023-04-25T17:16:00;1.40;;;1.30;;
19173;SDS011;9719;49.322;8.536;2023-04-25T17:21:02;2.75;;;1.75;;
19173;SDS011;9719;49.322;8.536;2023-04-25T17:26:05;1.95;;;1.85;;
19173;SDS011;9719;49.322;8.536;2023-04-25T17:31:07;1.95;;;1.70;;
19173;SDS011;9719;49.322;8.536;2023-04-25T17:36:09;2.15;;;2.05;;
19173;SDS011;9719;49.322;8.536;2023-04-25T17:41:11;1.90;;;1.77;;
19173;SDS011;9719;49.322;8.536;2023-04-25T17:46:15;7.43;;;3.03;;
19173;SDS011;9719;49.322;8.536;2023-04-25T17:51:16;3.35;;;2.25;;
19173;SDS011;9719;49.322;8.536;2023-04-25T17:56:18;2.42;;;2.22;;
19173;SDS011;9719;49.322;8.536;2023-04-25T18:01:21;2.33;;;2.10;;
19173;SDS011;9719;49.322;8.536;2023-04-25T18:06:23;3.47;;;2.30;;
19173;SDS011;9719;49.322;8.536;2023-04-25T18:11:27;2.88;;;2.58;;
19173;SDS011;9719;49.322;8.536;2023-04-25T18:16:31;2.97;;;2.58;;
19173;SDS011;9719;49.322;8.536;2023-04-25T18:21:32;5.00;;;1.90;;
19173;SDS011;9719;49.322;8.536;2023-04-25T18:26:35;2.42;;;2.28;;
19173;SDS011;9719;49.322;8.536;2023-04-25T18:31:38;2.00;;;1.85;;
19173;SDS011;9719;49.322;8.536;2023-04-25T18:36:40;2.38;;;2.28;;
19173;SDS011;9719;49.322;8.536;2023-04-25T18:41:41;1.80;;;1.70;;
19173;SDS011;9719;49.322;8.536;2023-04-25T18:46:44;1.80;;;1.70;;
19173;SDS011;9719;49.322;8.536;2023-04-25T18:51:46;1.55;;;1.52;;
19173;SDS011;9719;49.322;8.536;2023-04-25T18:56:48;1.80;;;1.70;;
19173;SDS011;9719;49.322;8.536;2023-04-25T19:01:52;1.75;;;1.65;;
19173;SDS011;9719;49.322;8.536;2023-04-25T19:06:54;2.38;;;2.17;;
19173;SDS011;9719;49.322;8.536;2023-04-25T19:11:56;3.92;;;1.30;;
19173;SDS011;9719;49.322;8.536;2023-04-25T19:16:59;1.60;;;1.50;;
19173;SDS011;9719;49.322;8.536;2023-04-25T19:22:01;1.67;;;1.58;;
19173;SDS011;9719;49.322;8.536;2023-04-25T19:27:02;2.28;;;1.45;;
19173;SDS011;9719;49.322;8.536;2023-04-25T19:32:05;1.75;;;1.60;;
19173;SDS011;9719;49.322;8.536;2023-04-25T19:37:07;2.70;;;1.83;;
19173;SDS011;9719;49.322;8.536;2023-04-25T19:42:09;2.58;;;1.80;;
19173;SDS011;9719;49.322;8.536;2023-04-25T19:47:12;2.10;;;1.90;;
19173;SDS011;9719;49.322;8.536;2023-04-25T19:52:14;1.35;;;1.25;;
19173;SDS011;9719;49.322;8.536;2023-04-25T19:57:16;2.08;;;1.98;;
19173;SDS011;9719;49.322;8.536;2023-04-25T20:02:19;1.85;;;1.08;;
19173;SDS011;9719;49.322;8.536;2023-04-25T20:07:21;1.45;;;1.35;;
19173;SDS011;9719;49.322;8.536;2023-04-25T20:12:23;1.55;;;1.40;;
19173;SDS011;9719;49.322;8.536;2023-04-25T20:17:26;2.15;;;1.73;;
19173;SDS011;9719;49.322;8.536;2023-04-25T20:22:28;2.00;;;1.20;;
19173;SDS011;9719;49.322;8.536;2023-04-25T20:27:35;3.72;;;1.85;;
19173;SDS011;9719;49.322;8.536;2023-04-25T20:32:38;4.53;;;1.30;;
19173;SDS011;9719;49.322;8.536;2023-04-25T20:37:41;1.70;;;1.60;;
19173;SDS011;9719;49.322;8.536;2023-04-25T20:42:42;1.60;;;1.20;;
19173;SDS011;9719;49.322;8.536;2023-04-25T20:47:46;1.30;;;1.30;;
19173;SDS011;9719;49.322;8.536;2023-04-25T20:52:48;9.23;;;2.00;;
19173;SDS011;9719;49.322;8.536;2023-04-25T20:57:50;3.03;;;1.60;;
19173;SDS011;9719;49.322;8.536;2023-04-25T21:02:53;2.22;;;2.03;;
19173;SDS011;9719;49.322;8.536;2023-04-25T21:07:55;1.52;;;1.48;;
19173;SDS011;9719;49.322;8.536;2023-04-25T21:12:57;1.33;;;1.27;;
19173;SDS011;9719;49.322;8.536;2023-04-25T21:18:00;2.15;;;1.98;;
19173;SDS011;9719;49.322;8.536;2023-04-25T21:23:01;9.70;;;2.08;;
19173;SDS011;9719;49.322;8.536;2023-04-25T21:28:03;1.55;;;1.45;;
19173;SDS011;9719;49.322;8.536;2023-04-25T21:33:06;1.48;;;1.40;;
19173;SDS011;9719;49.322;8.536;2023-04-25T21:38:08;1.70;;;1.67;;
19173;SDS011;9719;49.322;8.536;2023-04-25T21:43:11;1.75;;;1.65;;
19173;SDS011;9719;49.322;8.536;2023-04-25T21:48:14;3.67;;;1.48;;
19173;SDS011;9719;49.322;8.536;2023-04-25T21:53:16;2.17;;;1.70;;
19173;SDS011;9719;49.322;8.536;2023-04-25T21:58:17;6.55;;;1.60;;
19173;SDS011;9719;49.322;8.536;2023-04-25T22:03:20;3.67;;;2.25;;
19173;SDS011;9719;49.322;8.536;2023-04-25T22:08:22;1.90;;;1.80;;
19173;SDS011;9719;49.322;8.536;2023-04-25T22:13:24;2.17;;;2.00;;
19173;SDS011;9719;49.322;8.536;2023-04-25T22:18:28;2.77;;;2.20;;
19173;SDS011;9719;49.322;8.536;2023-04-25T22:23:30;3.20;;;2.07;;
19173;SDS011;9719;49.322;8.536;2023-04-25T22:28:32;2.73;;;2.53;;
19173;SDS011;9719;49.322;8.536;2023-04-25T22:33:35;5.22;;;2.50;;
19173;SDS011;9719;49.322;8.536;2023-04-25T22:38:37;3.55;;;2.97;;
19173;SDS011;9719;49.322;8.536;2023-04-25T22:43:40;5.47;;;3.30;;
19173;SDS011;9719;49.322;8.536;2023-04-25T22:48:43;5.67;;;3.20;;
19173;SDS011;9719;49.322;8.536;2023-04-25T22:53:44;3.10;;;2.77;;
19173;SDS011;9719;49.322;8.536;2023-04-25T22:58:46;3.33;;;3.10;;
19173;SDS011;9719;49.322;8.536;2023-04-25T23:03:50;2.40;;;2.17;;
19173;SDS011;9719;49.322;8.536;2023-04-25T23:08:52;2.97;;;2.80;;
19173;SDS011;9719;49.322;8.536;2023-04-25T23:13:54;6.35;;;2.70;;
19173;SDS011;9719;49.322;8.536;2023-04-25T23:18:59;4.35;;;2.60;;
19173;SDS011;9719;49.322;8.536;2023-04-25T23:24:00;3.92;;;3.10;;
19173;SDS011;9719;49.322;8.536;2023-04-25T23:29:02;1.93;;;1.83;;
19173;SDS011;9719;49.322;8.536;2023-04-25T23:34:05;4.00;;;2.37;;
19173;SDS011;9719;49.322;8.536;2023-04-25T23:39:07;4.63;;;2.77;;
19173;SDS011;9719;49.322;8.536;2023-04-25T23:44:09;2.55;;;2.45;;
19173;SDS011;9719;49.322;8.536;2023-04-25T23:49:12;2.15;;;2.05;;
19173;SDS011;9719;49.322;8.536;2023-04-25T23:54:14;3.47;;;1.77;;
19173;SDS011;9719;49.322;8.536;2023-04-25T23:59:16;3.25;;;2.78;;
